createdAt,value
2023-05-19T00:02:09.335Z,100838.63
2023-05-19T00:04:37.725Z,100848.97
2023-05-19T00:07:05.671Z,100834.97
2023-05-19T00:09:33.164Z,100836.91
2023-05-19T00:12:00.650Z,100836.38
2023-05-19T00:14:29.118Z,100833.53
2023-05-19T00:16:58.070Z,100835.06
2023-05-19T00:23:38.071Z,100836.16
2023-05-19T00:26:05.401Z,100831.56
2023-05-19T00:28:32.741Z,100833.25
2023-05-19T00:31:01.182Z,100831.06
2023-05-19T00:33:28.455Z,100829.19
2023-05-19T00:35:55.769Z,100831.06
2023-05-19T00:38:23.059Z,100831.25
2023-05-19T00:40:50.411Z,100827.19
2023-05-19T00:43:17.727Z,100834.75
2023-05-19T00:45:45.107Z,100821.59
2023-05-19T00:48:12.446Z,100828.41
2023-05-19T00:50:40.220Z,100837.25
2023-05-19T00:53:07.557Z,100829.44
2023-05-19T00:55:34.878Z,100821.69
2023-05-19T00:58:02.388Z,100827.81
2023-05-19T01:00:30.673Z,100827.56
2023-05-19T01:02:58.343Z,100821.84
2023-05-19T01:05:25.892Z,100824.78
2023-05-19T01:07:53.731Z,100831.94
2023-05-19T01:10:21.085Z,100834.94
2023-05-19T01:12:48.736Z,100828.03
2023-05-19T01:15:16.115Z,100839.22
2023-05-19T01:18:08.658Z,100821.38
2023-05-19T01:20:38.927Z,100814.69
2023-05-19T01:23:18.207Z,100829.00
2023-05-19T01:25:48.206Z,100832.97
2023-05-19T01:28:33.450Z,100832.31
2023-05-19T01:31:00.884Z,100832.25
2023-05-19T01:33:29.269Z,100834.22
2023-05-19T01:35:56.614Z,100840.81
2023-05-19T01:38:24.484Z,100829.56
2023-05-19T01:40:51.816Z,100822.16
2023-05-19T01:43:21.607Z,100797.41
2023-05-19T01:45:49.028Z,100828.53
2023-05-19T01:48:16.643Z,100824.09
2023-05-19T01:50:45.781Z,100829.56
2023-05-19T01:53:13.185Z,100821.00
2023-05-19T01:55:45.392Z,100821.22
2023-05-19T01:58:45.821Z,100827.53
2023-05-19T02:01:46.006Z,100828.53
2023-05-19T02:04:21.590Z,100821.50
2023-05-19T02:06:49.041Z,100811.34
2023-05-19T02:09:21.333Z,100819.91
2023-05-19T02:11:54.722Z,100821.00
2023-05-19T02:14:34.458Z,100818.28
2023-05-19T02:17:01.749Z,100791.91
2023-05-19T02:19:32.671Z,100813.16
2023-05-19T02:22:00.150Z,100799.25
2023-05-19T02:24:27.473Z,100807.44
2023-05-19T02:26:54.823Z,100816.31
2023-05-19T02:29:22.139Z,100814.63
2023-05-19T02:31:51.152Z,100810.88
2023-05-19T02:34:19.613Z,100808.84
2023-05-19T02:36:49.815Z,100818.63
2023-05-19T02:39:17.164Z,100825.78
2023-05-19T02:41:44.462Z,100819.16
2023-05-19T02:44:11.777Z,100816.66
2023-05-19T02:46:39.224Z,100815.75
2023-05-19T02:49:06.793Z,100820.69
2023-05-19T02:51:34.060Z,100813.06
2023-05-19T02:54:01.379Z,100824.31
2023-05-19T02:56:28.788Z,100823.63
2023-05-19T02:58:56.464Z,100824.63
2023-05-19T03:01:23.824Z,100826.16
2023-05-19T03:03:51.271Z,100828.69
2023-05-19T03:06:18.640Z,100832.69
2023-05-19T03:08:46.186Z,100835.56
2023-05-19T03:11:13.707Z,100833.72
2023-05-19T03:13:41.269Z,100820.06
2023-05-19T03:16:08.654Z,100824.38
2023-05-19T03:18:36.273Z,100836.16
2023-05-19T03:21:03.874Z,100828.75
2023-05-19T03:23:31.175Z,100828.38
2023-05-19T03:25:58.494Z,100837.06
2023-05-19T03:28:27.443Z,100840.94
2023-05-19T03:30:54.770Z,100836.84
2023-05-19T03:33:28.094Z,100835.31
2023-05-19T03:35:56.863Z,100829.16
2023-05-19T03:38:24.234Z,100837.72
2023-05-19T03:40:57.007Z,100844.56
2023-05-19T03:43:24.310Z,100826.84
2023-05-19T03:45:58.927Z,100831.75
2023-05-19T03:48:45.054Z,100832.00
2023-05-19T03:51:32.602Z,100835.03
2023-05-19T03:54:07.464Z,100838.06
2023-05-19T03:56:42.046Z,100841.53
2023-05-19T03:59:12.350Z,100839.19
2023-05-19T04:01:39.655Z,100831.72
2023-05-19T04:04:07.422Z,100843.97
2023-05-19T04:06:36.336Z,100853.81
2023-05-19T04:09:05.201Z,100858.91
2023-05-19T04:11:32.565Z,100859.28
2023-05-19T04:14:00.224Z,100855.63
2023-05-19T04:16:27.628Z,100862.28
2023-05-19T04:18:55.151Z,100863.56
2023-05-19T04:21:22.499Z,100873.09
2023-05-19T04:23:49.891Z,100879.63
2023-05-19T04:26:18.150Z,100870.91
2023-05-19T04:28:45.896Z,100861.84
2023-05-19T04:31:14.259Z,100863.44
2023-05-19T04:33:42.359Z,100855.66
2023-05-19T04:36:10.793Z,100858.38
2023-05-19T04:38:40.606Z,100867.22
2023-05-19T04:41:11.076Z,100866.91
2023-05-19T04:43:42.066Z,100869.16
2023-05-19T04:46:13.255Z,100856.63
2023-05-19T04:48:42.795Z,100845.66
2023-05-19T04:51:10.164Z,100870.28
2023-05-19T04:53:37.523Z,100855.22
2023-05-19T04:56:08.536Z,100865.16
2023-05-19T04:58:35.985Z,100862.13
2023-05-19T05:01:03.891Z,100861.78
2023-05-19T05:03:33.257Z,100865.09
2023-05-19T05:06:01.409Z,100861.41
2023-05-19T05:08:30.265Z,100862.78
2023-05-19T05:10:57.869Z,100857.00
2023-05-19T05:13:25.676Z,100853.34
2023-05-19T05:15:54.274Z,100864.06
2023-05-19T05:18:22.258Z,100863.69
2023-05-19T05:20:50.390Z,100862.88
2023-05-19T05:23:18.143Z,100859.16
2023-05-19T05:25:47.808Z,100855.97
2023-05-19T05:28:16.494Z,100850.63
2023-05-19T05:30:45.022Z,100854.38
2023-05-19T05:33:14.429Z,100855.03
2023-05-19T05:35:42.330Z,100859.25
2023-05-19T05:38:11.801Z,100846.31
2023-05-19T05:40:40.265Z,100848.56
2023-05-19T05:43:08.625Z,100857.66
2023-05-19T05:45:42.009Z,100858.72
2023-05-19T05:48:09.822Z,100829.09
2023-05-19T05:50:37.493Z,100846.44
2023-05-19T05:53:06.613Z,100839.28
2023-05-19T05:55:35.788Z,100834.41
2023-05-19T05:58:03.722Z,100845.72
2023-05-19T06:00:31.411Z,100847.28
2023-05-19T06:02:59.430Z,100849.91
2023-05-19T06:05:27.211Z,100855.22
2023-05-19T06:07:55.245Z,100859.25
2023-05-19T06:10:26.381Z,100850.25
2023-05-19T06:12:55.272Z,100857.59
2023-05-19T06:15:23.545Z,100858.16
2023-05-19T06:18:01.718Z,100853.75
2023-05-19T06:20:29.603Z,100857.44
2023-05-19T06:22:57.664Z,100856.81
2023-05-19T06:25:27.488Z,100866.88
2023-05-19T06:27:55.962Z,100848.88
2023-05-19T06:30:24.222Z,100858.84
2023-05-19T06:33:05.752Z,100867.78
2023-05-19T06:35:33.468Z,100869.03
2023-05-19T06:38:01.404Z,100877.16
2023-05-19T06:40:28.795Z,100867.53
2023-05-19T06:42:56.311Z,100876.78
2023-05-19T06:45:35.010Z,100872.56
2023-05-19T06:48:04.387Z,100877.75
2023-05-19T06:50:32.095Z,100883.94
2023-05-19T06:52:59.536Z,100875.81
2023-05-19T06:55:27.001Z,100882.09
2023-05-19T06:57:54.295Z,100884.34
2023-05-19T07:00:23.801Z,100879.59
2023-05-19T07:02:53.299Z,100868.22
2023-05-19T07:05:21.080Z,100864.03
2023-05-19T07:07:53.068Z,100869.59
2023-05-19T07:10:24.581Z,100883.31
2023-05-19T07:12:52.816Z,100860.16
2023-05-19T07:15:23.014Z,100876.75
2023-05-19T07:17:50.483Z,100870.63
2023-05-19T07:20:18.007Z,100871.94
2023-05-19T07:22:45.347Z,100872.09
2023-05-19T07:25:12.668Z,100875.34
2023-05-19T07:27:43.015Z,100870.22
2023-05-19T07:30:11.159Z,100877.63
2023-05-19T07:32:38.608Z,100883.13
2023-05-19T07:35:06.085Z,100874.16
2023-05-19T07:37:33.404Z,100879.75
2023-05-19T07:40:00.731Z,100871.44
2023-05-19T07:42:28.019Z,100879.47
2023-05-19T07:44:55.392Z,100874.44
2023-05-19T07:47:22.695Z,100874.75
2023-05-19T07:49:51.811Z,100877.19
2023-05-19T07:52:19.354Z,100879.19
2023-05-19T07:54:46.791Z,100887.38
2023-05-19T07:57:14.607Z,100884.50
2023-05-19T07:59:41.950Z,100878.84
2023-05-19T08:02:09.296Z,100885.06
2023-05-19T08:04:36.658Z,100879.88
2023-05-19T08:07:04.092Z,100878.13
2023-05-19T08:09:31.402Z,100876.00
2023-05-19T08:11:58.691Z,100876.31
2023-05-19T08:14:27.072Z,100851.53
2023-05-19T08:16:54.399Z,100859.69
2023-05-19T08:19:21.912Z,100860.78
2023-05-19T08:21:49.735Z,100865.81
2023-05-19T08:24:17.235Z,100866.44
2023-05-19T08:26:44.592Z,100860.59
2023-05-19T08:29:12.133Z,100861.78
2023-05-19T08:31:39.518Z,100859.81
2023-05-19T08:34:06.922Z,100858.25
2023-05-19T08:36:34.549Z,100857.69
2023-05-19T08:39:04.563Z,100860.91
2023-05-19T08:41:31.846Z,100863.66
2023-05-19T08:43:59.351Z,100853.44
2023-05-19T08:46:27.001Z,100861.97
2023-05-19T08:48:55.401Z,100858.66
2023-05-19T08:51:39.051Z,100866.97
2023-05-19T08:54:14.688Z,100864.38
2023-05-19T08:56:45.592Z,100865.38
2023-05-19T08:59:14.128Z,100860.72
2023-05-19T09:01:45.781Z,100867.00
2023-05-19T09:04:13.486Z,100862.63
2023-05-19T09:06:42.501Z,100862.00
2023-05-19T09:09:10.282Z,100870.13
2023-05-19T09:11:37.875Z,100860.50
2023-05-19T09:14:07.651Z,100862.19
2023-05-19T09:16:35.306Z,100863.53
2023-05-19T09:19:02.894Z,100855.69
2023-05-19T09:21:32.974Z,100851.44
2023-05-19T09:24:06.844Z,100850.25
2023-05-19T09:26:41.567Z,100859.03
2023-05-19T09:29:15.648Z,100856.72
2023-05-19T09:31:50.406Z,100857.72
2023-05-19T09:34:18.063Z,100839.75
2023-05-19T09:36:49.471Z,100855.28
2023-05-19T09:39:17.246Z,100855.91
2023-05-19T09:41:44.973Z,100857.84
2023-05-19T09:44:21.322Z,100860.78
2023-05-19T09:46:52.817Z,100854.63
2023-05-19T09:49:29.727Z,100849.53
2023-05-19T09:51:57.846Z,100844.09
2023-05-19T09:54:25.772Z,100846.81
2023-05-19T09:56:59.094Z,100838.56
2023-05-19T09:59:27.259Z,100838.56
2023-05-19T10:01:56.946Z,100834.31
2023-05-19T10:04:26.829Z,100829.59
2023-05-19T10:06:55.260Z,100835.47
2023-05-19T10:09:26.564Z,100826.84
2023-05-19T10:11:54.884Z,100826.06
2023-05-19T10:14:26.659Z,100824.50
2023-05-19T10:16:58.661Z,100823.69
2023-05-19T10:19:29.373Z,100814.28
2023-05-19T10:21:57.027Z,100817.03
2023-05-19T10:24:24.372Z,100808.78
2023-05-19T10:26:55.685Z,100808.78
2023-05-19T10:29:28.368Z,100800.50
2023-05-19T10:31:56.337Z,100796.81
2023-05-19T10:34:34.804Z,100812.56
2023-05-19T10:37:10.866Z,100808.19
2023-05-19T10:39:38.144Z,100804.31
2023-05-19T10:42:15.859Z,100806.25
2023-05-19T10:45:21.385Z,100805.38
2023-05-19T10:47:50.947Z,100797.56
2023-05-19T10:50:18.379Z,100792.25
2023-05-19T10:52:45.752Z,100791.06
2023-05-19T10:55:17.740Z,100779.34
2023-05-19T10:57:56.788Z,100790.13
2023-05-19T11:00:28.055Z,100788.72
2023-05-19T11:02:57.609Z,100790.47
2023-05-19T11:05:29.042Z,100777.69
2023-05-19T11:08:02.234Z,100780.97
2023-05-19T11:10:29.841Z,100789.38
2023-05-19T11:15:28.362Z,100794.72
2023-05-19T11:17:55.999Z,100793.56
2023-05-19T11:20:27.259Z,100788.47
2023-05-19T11:23:03.593Z,100790.41
2023-05-19T11:25:43.292Z,100784.00
2023-05-19T11:28:12.190Z,100775.16
2023-05-19T11:30:41.487Z,100775.69
2023-05-19T11:33:09.025Z,100773.34
2023-05-19T11:35:37.420Z,100775.22
2023-05-19T11:38:05.406Z,100767.72
2023-05-19T11:40:32.944Z,100767.88
2023-05-19T11:43:01.916Z,100778.22
2023-05-19T11:45:31.359Z,100763.44
2023-05-19T11:48:02.492Z,100766.81
2023-05-19T11:50:33.666Z,100758.44
2023-05-19T11:53:01.490Z,100765.16
2023-05-19T11:55:29.789Z,100753.91
2023-05-19T12:00:31.265Z,100746.81
2023-05-19T12:02:58.715Z,100749.66
2023-05-19T12:05:26.591Z,100742.72
2023-05-19T12:07:54.042Z,100738.72
2023-05-19T12:10:25.008Z,100726.63
2023-05-19T12:12:53.319Z,100721.84
2023-05-19T12:15:23.968Z,100726.16
2023-05-19T12:17:58.891Z,100714.41
2023-05-19T12:20:26.868Z,100715.16
2023-05-19T12:22:57.383Z,100706.88
2023-05-19T12:25:24.878Z,100709.59
2023-05-19T12:27:53.251Z,100711.75
2023-05-19T12:30:25.129Z,100709.47
2023-05-19T12:32:53.960Z,100708.13
2023-05-19T12:35:26.010Z,100710.41
2023-05-19T12:37:53.406Z,100708.53
2023-05-19T12:40:20.748Z,100699.13
2023-05-19T12:42:48.809Z,100695.59
2023-05-19T12:45:16.091Z,100698.84
2023-05-19T12:47:43.418Z,100694.44
2023-05-19T12:50:11.110Z,100703.34
2023-05-19T12:52:45.399Z,100708.91
2023-05-19T12:55:12.890Z,100702.03
2023-05-19T12:57:41.565Z,100709.28
2023-05-19T13:00:14.798Z,100701.81
2023-05-19T13:03:15.989Z,100700.69
2023-05-19T13:05:44.422Z,100686.91
2023-05-19T13:08:13.118Z,100686.84
2023-05-19T13:10:42.334Z,100683.88
2023-05-19T13:13:09.858Z,100688.38
2023-05-19T13:15:38.381Z,100681.56
2023-05-19T13:18:06.855Z,100686.91
2023-05-19T13:20:34.708Z,100678.69
2023-05-19T13:23:02.468Z,100669.41
2023-05-19T13:25:29.755Z,100668.97
2023-05-19T13:27:59.343Z,100665.59
2023-05-19T13:30:27.071Z,100657.19
2023-05-19T13:32:54.471Z,100655.66
2023-05-19T13:35:21.884Z,100645.00
2023-05-19T13:37:49.601Z,100657.09
2023-05-19T13:40:17.562Z,100646.66
2023-05-19T13:42:45.411Z,100644.13
2023-05-19T13:45:12.729Z,100645.56
2023-05-19T13:47:42.304Z,100626.59
2023-05-19T13:50:12.378Z,100633.03
2023-05-19T13:52:39.790Z,100642.06
2023-05-19T13:55:07.688Z,100634.44
2023-05-19T13:57:35.569Z,100629.25
2023-05-19T14:00:04.736Z,100629.44
2023-05-19T14:02:41.281Z,100639.22
2023-05-19T14:05:08.860Z,100624.88
2023-05-19T14:07:36.173Z,100631.97
2023-05-19T14:10:05.666Z,100626.78
2023-05-19T14:12:41.579Z,100628.53
2023-05-19T14:15:14.872Z,100625.41
2023-05-19T14:17:42.279Z,100632.09
2023-05-19T14:20:10.125Z,100636.63
2023-05-19T14:22:37.422Z,100637.44
2023-05-19T14:25:05.310Z,100643.22
2023-05-19T14:27:32.688Z,100640.06
2023-05-19T14:30:00.009Z,100635.53
2023-05-19T14:32:30.089Z,100636.03
2023-05-19T14:34:57.775Z,100630.00
2023-05-19T14:37:28.831Z,100625.72
2023-05-19T14:39:57.611Z,100630.25
2023-05-19T14:42:25.123Z,100625.59
2023-05-19T14:44:52.447Z,100630.00
2023-05-19T14:47:19.732Z,100619.94
2023-05-19T14:49:47.220Z,100614.56
2023-05-19T14:52:14.531Z,100618.75
2023-05-19T14:54:41.841Z,100621.50
2023-05-19T14:57:09.163Z,100612.50
2023-05-19T14:59:39.329Z,100613.28
2023-05-19T15:02:06.672Z,100616.91
2023-05-19T15:04:33.931Z,100623.63
2023-05-19T15:09:31.809Z,100606.22
2023-05-19T15:12:01.326Z,100616.88
2023-05-19T15:14:30.422Z,100609.41
2023-05-19T15:16:58.707Z,100613.59
2023-05-19T15:19:26.331Z,100609.91
2023-05-19T15:21:53.849Z,100590.47
2023-05-19T15:24:21.324Z,100599.59
2023-05-19T15:26:48.751Z,100602.16
2023-05-19T15:29:16.053Z,100600.47
2023-05-19T15:31:43.495Z,100597.28
2023-05-19T15:34:10.882Z,100606.63
2023-05-19T15:36:38.220Z,100596.91
2023-05-19T15:39:06.616Z,100603.16
2023-05-19T15:41:33.991Z,100599.53
2023-05-19T15:44:02.434Z,100600.41
2023-05-19T15:46:30.007Z,100600.72
2023-05-19T15:48:57.317Z,100600.63
2023-05-19T15:51:24.871Z,100596.81
2023-05-19T15:53:52.477Z,100598.09
2023-05-19T15:56:19.768Z,100596.69
2023-05-19T15:58:47.259Z,100588.00
2023-05-19T16:01:15.301Z,100597.28
2023-05-19T16:03:43.653Z,100588.72
2023-05-19T16:06:11.320Z,100585.31
2023-05-19T16:08:38.656Z,100580.28
2023-05-19T16:11:06.063Z,100582.78
2023-05-19T16:13:34.021Z,100591.72
2023-05-19T16:16:01.676Z,100589.56
2023-05-19T16:18:31.972Z,100574.91
2023-05-19T16:20:59.332Z,100585.09
2023-05-19T16:23:27.536Z,100587.63
2023-05-19T16:25:54.948Z,100572.81
2023-05-19T16:28:24.775Z,100572.44
2023-05-19T16:30:52.479Z,100564.50
2023-05-19T16:33:19.802Z,100578.44
2023-05-19T16:35:47.218Z,100575.31
2023-05-19T16:38:14.592Z,100580.25
2023-05-19T16:40:41.936Z,100582.34
2023-05-19T16:43:09.289Z,100587.44
2023-05-19T16:45:36.620Z,100587.16
2023-05-19T16:48:04.094Z,100585.88
2023-05-19T16:50:31.482Z,100581.38
2023-05-19T16:52:58.816Z,100588.28
2023-05-19T16:55:26.934Z,100601.56
2023-05-19T16:57:54.336Z,100594.28
2023-05-19T17:00:21.734Z,100604.28
2023-05-19T17:02:49.234Z,100600.50
2023-05-19T17:05:16.682Z,100582.97
2023-05-19T17:07:44.000Z,100596.78
2023-05-19T17:10:11.422Z,100591.28
2023-05-19T17:12:38.740Z,100593.19
2023-05-19T17:15:06.612Z,100608.47
2023-05-19T17:17:34.000Z,100603.81
2023-05-19T17:20:01.484Z,100608.38
2023-05-19T17:22:30.241Z,100611.88
2023-05-19T17:24:57.817Z,100599.97
2023-05-19T17:27:25.193Z,100624.00
2023-05-19T17:29:52.634Z,100625.50
2023-05-19T17:32:25.750Z,100622.31
2023-05-19T17:34:53.244Z,100628.78
2023-05-19T17:37:23.555Z,100632.59
2023-05-19T17:39:51.000Z,100630.88
2023-05-19T17:42:18.364Z,100623.63
2023-05-19T17:44:45.847Z,100634.03
2023-05-19T17:47:13.206Z,100636.16
2023-05-19T17:49:40.528Z,100637.84
2023-05-19T17:52:08.461Z,100646.13
2023-05-19T17:54:36.029Z,100642.41
2023-05-19T17:57:03.671Z,100640.97
2023-05-19T17:59:31.381Z,100642.66
2023-05-19T18:01:59.025Z,100642.00
2023-05-19T18:04:26.678Z,100636.13
2023-05-19T18:06:54.059Z,100641.28
2023-05-19T18:09:21.448Z,100648.09
2023-05-19T18:11:48.758Z,100647.69
2023-05-19T18:14:16.085Z,100648.53
2023-05-19T18:16:43.734Z,100646.22
2023-05-19T18:19:11.326Z,100652.88
2023-05-19T18:21:38.729Z,100650.59
2023-05-19T18:24:07.122Z,100651.78
2023-05-19T18:26:34.422Z,100650.25
2023-05-19T18:29:04.886Z,100655.41
2023-05-19T18:31:32.616Z,100658.19
2023-05-19T18:33:59.948Z,100660.56
2023-05-19T18:36:27.318Z,100669.19
2023-05-19T18:38:55.190Z,100662.53
2023-05-19T18:41:22.922Z,100667.59
2023-05-19T18:43:50.222Z,100675.84
2023-05-19T18:46:17.978Z,100687.19
2023-05-19T18:48:45.399Z,100669.94
2023-05-19T18:51:15.764Z,100684.78
2023-05-19T18:53:43.102Z,100687.94
2023-05-19T18:56:15.269Z,100689.03
2023-05-19T18:58:42.574Z,100691.38
2023-05-19T19:01:10.020Z,100697.25
2023-05-19T19:03:37.434Z,100695.66
2023-05-19T19:06:04.787Z,100695.69
2023-05-19T19:08:32.112Z,100690.09
2023-05-19T19:11:01.116Z,100704.22
2023-05-19T19:13:28.487Z,100697.63
2023-05-19T19:15:58.805Z,100700.25
2023-05-19T19:18:26.766Z,100704.53
2023-05-19T19:20:54.980Z,100706.09
2023-05-19T19:23:22.319Z,100707.25
2023-05-19T19:25:50.384Z,100711.09
2023-05-19T19:28:17.714Z,100709.13
2023-05-19T19:30:45.937Z,100685.09
2023-05-19T19:33:13.315Z,100712.91
2023-05-19T19:35:41.263Z,100708.94
2023-05-19T19:38:08.547Z,100709.19
2023-05-19T19:40:36.324Z,100706.31
2023-05-19T19:43:04.169Z,100711.00
2023-05-19T19:45:32.268Z,100714.44
2023-05-19T19:47:59.655Z,100715.13
2023-05-19T19:50:27.349Z,100720.59
2023-05-19T19:52:54.728Z,100713.41
2023-05-19T19:55:22.018Z,100722.41
2023-05-19T19:57:51.128Z,100718.81
2023-05-19T20:00:18.594Z,100727.38
2023-05-19T20:05:19.049Z,100713.09
2023-05-19T20:07:46.360Z,100720.06
2023-05-19T20:10:13.767Z,100728.47
2023-05-19T20:12:41.585Z,100729.63
2023-05-19T20:15:09.481Z,100711.19
2023-05-19T20:17:37.275Z,100713.41
2023-05-19T20:20:09.904Z,100718.13
2023-05-19T20:22:37.204Z,100718.75
2023-05-19T20:25:04.972Z,100714.81
2023-05-19T20:27:32.412Z,100728.19
2023-05-19T20:29:59.764Z,100725.28
2023-05-19T20:32:27.124Z,100727.03
2023-05-19T20:34:54.444Z,100710.09
2023-05-19T20:37:22.408Z,100715.06
2023-05-19T20:39:49.810Z,100713.06
2023-05-19T20:42:17.154Z,100712.56
2023-05-19T20:44:44.527Z,100715.47
2023-05-19T20:47:11.919Z,100721.22
2023-05-19T20:49:39.277Z,100709.34
2023-05-19T20:52:06.805Z,100726.13
2023-05-19T20:54:34.062Z,100723.78
2023-05-19T20:57:06.345Z,100721.16
2023-05-19T20:59:33.702Z,100720.75
2023-05-19T21:02:01.238Z,100734.97
2023-05-19T21:04:28.557Z,100720.69
2023-05-19T21:06:56.052Z,100733.78
2023-05-19T21:09:23.343Z,100736.00
2023-05-19T21:11:53.207Z,100742.44
2023-05-19T21:14:23.448Z,100747.16
2023-05-19T21:16:51.422Z,100732.03
2023-05-19T21:19:20.630Z,100749.84
2023-05-19T21:21:50.477Z,100732.97
2023-05-19T21:24:17.855Z,100733.59
2023-05-19T21:26:45.203Z,100739.69
2023-05-19T21:29:12.568Z,100743.16
2023-05-19T21:31:39.970Z,100742.75
2023-05-19T21:34:07.832Z,100739.53
2023-05-19T21:36:35.345Z,100743.47
2023-05-19T21:39:03.743Z,100742.63
2023-05-19T21:41:33.720Z,100742.63
2023-05-19T21:44:01.110Z,100730.69
2023-05-19T21:46:29.173Z,100733.97
2023-05-19T21:48:56.790Z,100745.97
2023-05-19T21:51:24.137Z,100743.09
2023-05-19T21:53:51.429Z,100741.16
2023-05-19T21:56:18.762Z,100742.13
2023-05-19T21:58:46.120Z,100751.56
2023-05-19T22:01:14.384Z,100745.97
2023-05-19T22:03:42.071Z,100747.78
2023-05-19T22:06:09.400Z,100753.53
2023-05-19T22:08:36.747Z,100753.38
2023-05-19T22:11:04.374Z,100755.56
2023-05-19T22:13:32.041Z,100758.34
2023-05-19T22:15:59.549Z,100752.69
2023-05-19T22:18:26.926Z,100760.56
2023-05-19T22:20:54.240Z,100755.56
2023-05-19T22:23:21.674Z,100745.09
2023-05-19T22:25:49.062Z,100737.63
2023-05-19T22:28:16.337Z,100742.69
2023-05-19T22:30:44.200Z,100756.28
2023-05-19T22:33:11.970Z,100760.13
2023-05-19T22:35:39.348Z,100755.84
2023-05-19T22:38:08.895Z,100744.19
2023-05-19T22:40:37.917Z,100748.09
2023-05-19T22:43:05.212Z,100747.41
2023-05-19T22:45:33.814Z,100731.56
2023-05-19T22:48:01.487Z,100743.91
2023-05-19T22:50:28.842Z,100735.59
2023-05-19T22:52:56.279Z,100744.88
2023-05-19T22:55:23.569Z,100754.47
2023-05-19T22:57:51.155Z,100746.44
2023-05-19T23:00:20.786Z,100749.56
2023-05-19T23:02:48.113Z,100747.41
2023-05-19T23:05:15.755Z,100739.34
2023-05-19T23:07:43.112Z,100744.44
2023-05-19T23:10:10.814Z,100746.16
2023-05-19T23:12:38.204Z,100739.50
2023-05-19T23:15:06.972Z,100745.91
2023-05-19T23:17:34.326Z,100734.34
2023-05-19T23:20:01.838Z,100734.25
2023-05-19T23:22:29.118Z,100739.53
2023-05-19T23:24:56.525Z,100745.50
2023-05-19T23:27:23.861Z,100755.84
2023-05-19T23:29:51.146Z,100746.16
2023-05-19T23:32:18.453Z,100745.00
2023-05-19T23:34:47.183Z,100740.94
2023-05-19T23:37:14.479Z,100743.50
2023-05-19T23:39:41.988Z,100746.22
2023-05-19T23:42:09.303Z,100732.53
2023-05-19T23:44:36.683Z,100735.44
2023-05-19T23:47:04.110Z,100720.88
2023-05-19T23:49:31.468Z,100727.34
2023-05-19T23:51:58.869Z,100725.75
2023-05-19T23:54:26.743Z,100723.19
2023-05-19T23:56:55.800Z,100720.66
2023-05-19T23:59:23.323Z,100713.94
